Keyser, West Virginia
Current Conditions -  °F | °C
As of 4:36 AM on Friday 24 Oct 2014 (Local Time) from KCBE Reporting Station
Scattered Clouds Scattered Clouds  
Wind Chill: 52°   Ceiling: Unl
Heat Index: 52°   Visibility: 10mi
Dew Point: 43°   Wind: 9mph
Humidity: 71%   Direction: 320°NW
Pressure: 30.06"   Gusts: 16mph
Location:  39.44°N, 78.98°W
Report Text: KCBE 240836Z AUTO 32008G14KT 281V341 10SM SCT029 11/06 A3006 RMK AO1
Loading
Personal Weather Stations






























Interactive Weather Map
Tropical Storm Tracking
New forecast layout! Learn more

10-Day Weather Forecast

Advertisements
Track Severe Weather on mobile